Time;durP1;ratioP1;P1;durP2;ratioP2;P2;SDS_P1;SDS_P2;PMS_P1;PMS_P2;Temp;Humidity;BMP_temperature;BMP_pressure;BME280_temperature;BME280_humidity;BME280_pressure;Samples;Min_cycle;Max_cycle;Signal;HPM_P1;HPM_P2
2024/01/05 00:00:58;;;;;;;11.32;3.08;;;7.30;99.90;;;;;;4973272;28;20260;-72
2024/01/05 00:03:26;;;;;;;11.68;2.80;;;7.30;99.90;;;;;;4972610;28;20216;-72
2024/01/05 00:05:53;;;;;;;9.98;2.65;;;7.30;99.90;;;;;;4972879;28;20197;-72
2024/01/05 00:08:23;;;;;;;14.60;3.08;;;7.30;99.90;;;;;;4972376;28;20208;-72
2024/01/05 00:10:51;;;;;;;13.63;3.50;;;7.30;99.90;;;;;;4972549;28;20228;-72
2024/01/05 00:13:18;;;;;;;15.25;3.53;;;7.20;99.90;;;;;;4972898;28;20633;-72
2024/01/05 00:15:46;;;;;;;6.80;2.58;;;7.30;99.90;;;;;;4972600;28;20228;-72
2024/01/05 00:18:13;;;;;;;10.88;2.90;;;7.20;99.90;;;;;;4970830;28;20318;-72
2024/01/05 00:20:41;;;;;;;12.85;2.47;;;7.20;99.90;;;;;;4972736;28;20243;-72
2024/01/05 00:23:09;;;;;;;10.65;2.67;;;7.20;99.90;;;;;;4976432;28;20737;-72
2024/01/05 00:25:38;;;;;;;7.70;2.78;;;7.20;99.90;;;;;;4976158;28;20288;-72
2024/01/05 00:28:06;;;;;;;8.05;2.25;;;7.20;99.90;;;;;;4976157;28;20312;-72
2024/01/05 00:30:35;;;;;;;8.10;2.45;;;7.20;99.90;;;;;;4976352;28;20336;-72
2024/01/05 00:33:03;;;;;;;8.25;2.30;;;7.30;99.90;;;;;;4976249;28;20223;-72
2024/01/05 00:35:32;;;;;;;7.53;2.55;;;7.30;99.90;;;;;;4976315;28;20215;-72
2024/01/05 00:37:59;;;;;;;9.38;2.53;;;7.30;99.90;;;;;;4975578;28;20243;-72
2024/01/05 00:40:27;;;;;;;6.30;2.20;;;7.30;99.90;;;;;;4976051;28;20229;-72
2024/01/05 00:42:56;;;;;;;8.27;1.95;;;7.30;99.90;;;;;;4976387;28;20295;-72
2024/01/05 00:45:24;;;;;;;9.88;2.28;;;7.20;99.90;;;;;;4976277;28;20251;-72
2024/01/05 00:47:53;;;;;;;12.98;2.40;;;7.20;99.90;;;;;;4975473;28;20299;-72
2024/01/05 00:50:21;;;;;;;7.88;2.80;;;7.20;99.90;;;;;;4975552;28;20279;-72
2024/01/05 00:52:49;;;;;;;8.30;2.10;;;7.20;99.90;;;;;;4976182;28;20217;-72
2024/01/05 00:55:17;;;;;;;5.90;2.03;;;7.20;99.90;;;;;;4976405;28;20236;-72
2024/01/05 00:57:44;;;;;;;8.50;1.80;;;7.20;99.90;;;;;;4975838;28;20670;-72
2024/01/05 01:00:15;;;;;;;12.07;2.17;;;7.20;99.90;;;;;;4975623;28;20324;-72
2024/01/05 01:02:42;;;;;;;7.07;2.10;;;7.10;99.90;;;;;;4976116;28;20236;-72
2024/01/05 01:05:10;;;;;;;14.90;3.05;;;7.10;99.90;;;;;;4975565;28;20216;-72
2024/01/05 01:07:40;;;;;;;14.13;2.25;;;7.10;99.90;;;;;;4975497;28;20300;-72
2024/01/05 01:10:08;;;;;;;5.10;2.03;;;7.10;99.90;;;;;;4975529;28;20228;-72
2024/01/05 01:12:36;;;;;;;10.50;1.92;;;7.10;99.90;;;;;;4975737;28;20304;-72
2024/01/05 01:15:04;;;;;;;9.13;2.33;;;7.00;99.90;;;;;;4975232;28;20299;-72
2024/01/05 01:17:34;;;;;;;12.10;2.40;;;7.00;99.90;;;;;;4975486;28;20221;-72
2024/01/05 01:20:02;;;;;;;13.27;2.28;;;7.00;99.90;;;;;;4975457;28;20287;-72
2024/01/05 01:22:30;;;;;;;5.88;2.38;;;7.00;99.90;;;;;;4975630;28;20738;-72
2024/01/05 01:24:58;;;;;;;10.43;2.30;;;7.00;99.90;;;;;;4975425;28;20296;-72
2024/01/05 01:27:25;;;;;;;7.47;2.35;;;7.00;99.90;;;;;;4975426;28;20210;-72
2024/01/05 01:29:53;;;;;;;7.20;1.95;;;7.00;99.90;;;;;;4974940;28;20233;-72
2024/01/05 01:32:21;;;;;;;7.82;2.00;;;7.00;99.90;;;;;;4974811;28;20213;-72
2024/01/05 01:34:50;;;;;;;5.70;2.40;;;7.00;99.90;;;;;;4975252;28;20337;-72
2024/01/05 01:37:18;;;;;;;12.98;2.33;;;7.00;99.90;;;;;;4974647;28;20231;-72
2024/01/05 01:39:46;;;;;;;15.32;2.42;;;7.00;99.90;;;;;;4973948;28;20224;-72
2024/01/05 01:42:14;;;;;;;11.13;2.90;;;7.00;99.90;;;;;;4975294;28;20659;-72
2024/01/05 01:44:42;;;;;;;8.43;2.75;;;7.00;99.90;;;;;;4974721;28;20259;-72
2024/01/05 01:47:10;;;;;;;13.93;2.92;;;7.00;99.90;;;;;;4975359;28;20279;-72
2024/01/05 01:49:38;;;;;;;15.35;3.15;;;7.00;99.90;;;;;;4974114;28;20317;-72
2024/01/05 01:52:07;;;;;;;10.70;2.75;;;7.10;99.90;;;;;;4975087;28;20628;-72
2024/01/05 01:54:35;;;;;;;8.43;2.90;;;7.10;99.90;;;;;;4974642;28;20303;-72
2024/01/05 01:57:03;;;;;;;13.27;3.03;;;7.10;99.90;;;;;;4974725;28;20224;-72
2024/01/05 01:59:32;;;;;;;12.57;3.40;;;7.20;99.90;;;;;;4974054;28;20236;-72
2024/01/05 02:01:59;;;;;;;15.82;3.05;;;7.20;99.90;;;;;;4975212;28;20236;-72
2024/01/05 02:04:27;;;;;;;5.97;2.42;;;7.20;99.90;;;;;;4974700;28;20259;-72
2024/01/05 02:06:55;;;;;;;18.98;3.80;;;7.20;99.90;;;;;;4962425;28;20868;-72
2024/01/05 02:09:23;;;;;;;10.52;3.03;;;7.20;99.90;;;;;;4973934;28;20315;-72
2024/01/05 02:11:51;;;;;;;9.75;2.83;;;7.20;99.90;;;;;;4974815;28;20271;-72
2024/01/05 02:14:19;;;;;;;8.15;3.05;;;7.20;99.90;;;;;;4974458;28;20213;-72
2024/01/05 02:16:47;;;;;;;6.03;2.80;;;7.20;99.90;;;;;;4974472;28;20260;-72
2024/01/05 02:19:15;;;;;;;14.45;3.22;;;7.20;99.90;;;;;;4973306;28;20658;-72
2024/01/05 02:21:44;;;;;;;8.98;2.65;;;7.10;99.90;;;;;;4974517;28;20689;-72
2024/01/05 02:24:13;;;;;;;8.63;2.58;;;7.10;99.90;;;;;;4970741;28;20276;-72
2024/01/05 02:26:41;;;;;;;13.27;2.75;;;7.10;99.90;;;;;;4974473;28;20255;-72
2024/01/05 02:29:09;;;;;;;8.90;2.95;;;7.10;99.90;;;;;;4973308;28;20216;-72
2024/01/05 02:31:37;;;;;;;10.00;3.05;;;7.00;99.90;;;;;;4974431;28;20263;-72
2024/01/05 02:34:05;;;;;;;7.72;2.55;;;7.00;99.90;;;;;;4973744;28;20209;-72
2024/01/05 02:36:33;;;;;;;10.90;2.33;;;6.90;99.90;;;;;;4974473;28;20263;-72
2024/01/05 02:39:01;;;;;;;11.93;2.63;;;6.90;99.90;;;;;;4973298;28;20228;-72
2024/01/05 02:41:30;;;;;;;5.50;2.33;;;6.90;99.90;;;;;;4974096;28;20603;-72
2024/01/05 02:43:58;;;;;;;13.35;2.65;;;6.90;99.90;;;;;;4972984;28;20247;-72
2024/01/05 02:46:25;;;;;;;12.73;3.40;;;6.90;99.90;;;;;;4974066;28;20204;-72
2024/01/05 02:48:53;;;;;;;10.95;2.80;;;6.90;99.90;;;;;;4973362;28;20209;-72
2024/01/05 02:51:21;;;;;;;5.50;2.67;;;6.80;99.90;;;;;;4973785;28;20205;-72
2024/01/05 02:53:49;;;;;;;7.30;2.60;;;6.80;99.90;;;;;;4973759;28;20209;-72
2024/01/05 02:56:21;;;;;;;6.90;2.50;;;6.80;99.90;;;;;;4974001;28;20204;-72
2024/01/05 02:58:50;;;;;;;10.18;2.88;;;6.80;99.90;;;;;;4973468;28;20694;-72
2024/01/05 03:01:18;;;;;;;8.13;2.80;;;6.80;99.90;;;;;;4974127;28;20255;-72
2024/01/05 03:03:46;;;;;;;10.40;3.03;;;6.80;99.90;;;;;;4973730;28;20251;-72
2024/01/05 03:06:18;;;;;;;10.90;3.13;;;6.80;99.90;;;;;;4974009;28;20217;-72
2024/01/05 03:08:46;;;;;;;13.27;3.35;;;6.80;99.90;;;;;;4972727;28;20197;-72
2024/01/05 03:11:14;;;;;;;9.02;2.67;;;6.80;99.90;;;;;;4973102;28;20228;-72
2024/01/05 03:13:42;;;;;;;9.50;2.65;;;6.80;99.90;;;;;;4973100;28;20208;-72
2024/01/05 03:16:11;;;;;;;5.93;2.72;;;6.80;99.90;;;;;;4973543;28;20629;-72
2024/01/05 03:18:39;;;;;;;9.88;2.55;;;6.80;99.90;;;;;;4973011;28;20283;-72
2024/01/05 03:21:07;;;;;;;7.88;2.72;;;6.80;99.90;;;;;;4973407;28;20221;-72
2024/01/05 03:23:35;;;;;;;12.02;3.45;;;6.80;99.90;;;;;;4973328;28;20216;-72
2024/01/05 03:26:03;;;;;;;12.55;3.45;;;6.80;99.90;;;;;;4974094;28;20259;-72
2024/01/05 03:28:31;;;;;;;13.00;4.15;;;6.70;99.90;;;;;;4973351;28;20251;-72
2024/01/05 03:30:59;;;;;;;13.98;3.03;;;6.70;99.90;;;;;;4973670;28;20263;-72
2024/01/05 03:33:28;;;;;;;10.52;3.75;;;6.80;99.90;;;;;;4973546;28;20208;-72
2024/01/05 03:35:56;;;;;;;13.00;3.00;;;6.80;99.90;;;;;;4973072;28;20313;-72
2024/01/05 03:38:24;;;;;;;12.10;3.70;;;6.80;99.90;;;;;;4972652;28;20234;-72
2024/01/05 03:40:52;;;;;;;8.45;3.05;;;6.80;99.90;;;;;;4972860;28;20282;-72
2024/01/05 03:43:21;;;;;;;11.13;3.13;;;6.80;99.90;;;;;;4973469;28;20256;-72
2024/01/05 03:45:51;;;;;;;12.23;3.17;;;6.80;99.90;;;;;;4973119;28;20263;-73
2024/01/05 03:48:18;;;;;;;11.00;3.20;;;6.80;99.90;;;;;;4972697;28;20678;-72
2024/01/05 03:50:47;;;;;;;9.48;3.22;;;6.80;99.90;;;;;;4972564;28;20279;-72
2024/01/05 03:53:15;;;;;;;6.22;2.95;;;6.80;99.90;;;;;;4972933;28;20208;-72
2024/01/05 03:55:43;;;;;;;14.68;3.22;;;6.80;99.90;;;;;;4972751;28;20288;-72
2024/01/05 03:58:11;;;;;;;8.88;3.60;;;6.80;99.90;;;;;;4972560;28;20323;-72
2024/01/05 04:00:38;;;;;;;9.90;2.88;;;6.80;99.90;;;;;;4972433;28;20227;-72
2024/01/05 04:03:07;;;;;;;9.98;3.28;;;6.80;99.90;;;;;;4973099;28;20204;-72
2024/01/05 04:05:35;;;;;;;10.93;3.10;;;6.80;99.90;;;;;;4971397;28;20592;-72
2024/01/05 04:08:05;;;;;;;9.73;3.55;;;6.80;99.90;;;;;;4972357;28;20216;-72
2024/01/05 04:10:33;;;;;;;9.68;2.90;;;6.80;99.90;;;;;;4972669;28;20315;-72
2024/01/05 04:13:01;;;;;;;10.00;3.33;;;6.80;99.90;;;;;;4972896;28;20243;-72
2024/01/05 04:15:30;;;;;;;6.03;2.78;;;6.80;99.90;;;;;;4972723;28;20239;-72
2024/01/05 04:18:01;;;;;;;12.50;2.80;;;6.80;99.90;;;;;;4972373;28;20275;-72
2024/01/05 04:20:29;;;;;;;13.18;3.15;;;6.80;99.90;;;;;;4972399;28;20315;-72
2024/01/05 04:22:57;;;;;;;15.55;3.00;;;6.80;99.90;;;;;;4972614;28;20259;-71
2024/01/05 04:25:26;;;;;;;11.43;3.17;;;6.80;99.90;;;;;;4972901;28;20220;-72
2024/01/05 04:27:54;;;;;;;10.77;2.83;;;6.80;99.90;;;;;;4972436;28;20236;-72
2024/01/05 04:30:21;;;;;;;9.95;2.83;;;6.80;99.90;;;;;;4994738;23;20323;-61
2024/01/05 04:32:50;;;;;;;8.07;3.08;;;6.70;99.90;;;;;;4971819;28;20212;-61
2024/01/05 04:35:18;;;;;;;13.32;2.97;;;6.70;99.90;;;;;;4972397;28;20268;-61
2024/01/05 04:37:46;;;;;;;8.75;3.00;;;6.70;99.90;;;;;;4972366;28;20229;-61
2024/01/05 04:40:14;;;;;;;7.82;3.17;;;6.70;99.90;;;;;;4972124;28;20726;-61
2024/01/05 04:42:43;;;;;;;11.15;3.05;;;6.70;99.90;;;;;;4972608;28;20598;-61
2024/01/05 04:45:11;;;;;;;8.93;2.97;;;6.70;99.90;;;;;;4972047;28;20256;-61
2024/01/05 04:47:39;;;;;;;7.18;2.13;;;6.70;99.90;;;;;;4972193;28;20742;-61
2024/01/05 04:50:09;;;;;;;10.73;2.63;;;6.70;99.90;;;;;;4972257;28;20209;-60
2024/01/05 04:52:37;;;;;;;5.13;2.10;;;6.70;99.90;;;;;;4972388;28;20244;-61
2024/01/05 04:55:06;;;;;;;12.35;3.33;;;6.70;99.90;;;;;;4971960;28;20319;-60
2024/01/05 04:57:34;;;;;;;5.55;2.25;;;6.60;99.90;;;;;;4972300;28;20209;-61
2024/01/05 05:00:04;;;;;;;10.30;2.15;;;6.60;99.90;;;;;;4971974;28;20205;-61
2024/01/05 05:02:32;;;;;;;5.90;2.20;;;6.60;99.90;;;;;;4972507;28;20209;-61
2024/01/05 05:04:59;;;;;;;11.82;3.45;;;6.60;99.90;;;;;;4971924;28;20702;-61
2024/01/05 05:07:27;;;;;;;13.10;3.00;;;6.60;99.90;;;;;;4973567;28;20408;-61
2024/01/05 05:09:55;;;;;;;6.80;2.75;;;6.60;99.90;;;;;;4975318;28;20232;-60
2024/01/05 05:12:23;;;;;;;16.55;2.70;;;6.70;99.90;;;;;;4975532;28;20209;-61
2024/01/05 05:14:53;;;;;;;12.60;2.50;;;6.70;99.90;;;;;;4974944;28;20781;-60
2024/01/05 05:17:22;;;;;;;11.57;2.72;;;6.70;99.90;;;;;;4975664;28;20296;-61
2024/01/05 05:19:54;;;;;;;11.10;2.90;;;6.70;99.90;;;;;;4975254;28;20220;-61
2024/01/05 05:22:22;;;;;;;14.75;2.92;;;6.70;99.90;;;;;;4973059;28;20232;-60
2024/01/05 05:24:51;;;;;;;12.20;2.92;;;6.70;99.90;;;;;;4974199;28;20570;-61
2024/01/05 05:27:19;;;;;;;8.68;2.78;;;6.70;99.90;;;;;;4973955;28;20200;-61
2024/01/05 05:29:47;;;;;;;8.43;2.97;;;6.70;99.90;;;;;;4973941;28;20215;-61
2024/01/05 05:32:15;;;;;;;11.20;3.33;;;6.70;99.90;;;;;;4975165;28;20236;-59
2024/01/05 05:34:44;;;;;;;12.55;2.90;;;6.80;99.90;;;;;;4974634;28;20252;-61
2024/01/05 05:37:12;;;;;;;8.68;2.97;;;6.80;99.90;;;;;;4975248;28;20217;-61
2024/01/05 05:39:40;;;;;;;12.73;2.58;;;6.80;99.90;;;;;;4974929;28;20228;-61
2024/01/05 05:42:08;;;;;;;13.73;3.38;;;6.80;99.90;;;;;;4975173;28;20248;-61
2024/01/05 05:44:36;;;;;;;10.63;2.78;;;6.80;99.90;;;;;;4975045;28;20232;-61
2024/01/05 05:47:04;;;;;;;7.70;2.63;;;6.80;99.90;;;;;;4974888;28;20208;-60
2024/01/05 05:49:32;;;;;;;7.80;2.97;;;6.80;99.90;;;;;;4974686;28;20255;-60
2024/01/05 05:52:01;;;;;;;9.18;2.90;;;6.90;99.90;;;;;;4974568;28;20208;-60
2024/01/05 05:54:29;;;;;;;9.93;2.50;;;6.80;99.90;;;;;;4973516;28;20303;-61
2024/01/05 05:56:57;;;;;;;9.32;3.40;;;6.80;99.90;;;;;;4974157;28;20582;-61
2024/01/05 05:59:25;;;;;;;12.45;2.78;;;6.90;99.90;;;;;;4973879;28;20299;-61
2024/01/05 06:01:53;;;;;;;14.75;3.33;;;6.90;99.90;;;;;;4974665;28;20208;-60
2024/01/05 06:04:21;;;;;;;12.05;2.72;;;6.90;99.90;;;;;;4974380;28;20256;-61
2024/01/05 06:06:49;;;;;;;6.90;2.72;;;6.90;99.90;;;;;;4974500;28;20209;-60
2024/01/05 06:09:18;;;;;;;12.07;2.70;;;7.00;99.90;;;;;;4974108;28;20659;-59
2024/01/05 06:11:46;;;;;;;12.25;3.33;;;6.90;99.90;;;;;;4974505;28;20729;-61
2024/01/05 06:14:14;;;;;;;9.10;3.35;;;7.00;99.90;;;;;;4973741;28;20647;-61
2024/01/05 06:16:42;;;;;;;15.07;2.75;;;6.90;99.90;;;;;;4974037;28;20205;-62
2024/01/05 06:19:10;;;;;;;10.30;3.08;;;7.00;99.90;;;;;;4972062;28;20320;-61
2024/01/05 06:21:38;;;;;;;9.52;3.03;;;7.00;99.90;;;;;;4973748;28;20741;-62
2024/01/05 06:24:06;;;;;;;5.82;2.47;;;7.00;99.90;;;;;;4973656;28;20764;-61
2024/01/05 06:26:35;;;;;;;13.13;2.88;;;7.00;99.90;;;;;;4973917;28;20204;-61
2024/01/05 06:29:03;;;;;;;9.52;2.72;;;7.00;99.90;;;;;;4973594;28;20295;-60
2024/01/05 06:31:31;;;;;;;9.13;2.65;;;7.10;99.90;;;;;;4973576;28;20306;-61
2024/01/05 06:33:59;;;;;;;6.43;2.85;;;7.10;99.90;;;;;;4974067;28;20232;-60
2024/01/05 06:36:30;;;;;;;9.40;2.95;;;7.10;99.90;;;;;;4974087;28;20646;-62
2024/01/05 06:38:58;;;;;;;11.38;2.58;;;7.00;99.90;;;;;;4973469;28;20232;-61
2024/01/05 06:41:26;;;;;;;13.95;3.17;;;7.10;99.90;;;;;;4973984;28;20228;-62
2024/01/05 06:43:55;;;;;;;10.07;3.00;;;7.10;99.90;;;;;;4973211;28;20625;-61
2024/01/05 06:46:23;;;;;;;11.07;3.03;;;7.10;99.90;;;;;;4973363;28;20228;-62
2024/01/05 06:48:51;;;;;;;9.85;2.40;;;7.10;99.90;;;;;;4973011;28;20727;-59
2024/01/05 06:51:19;;;;;;;10.80;2.97;;;7.10;99.90;;;;;;4973961;28;20204;-60
2024/01/05 06:53:47;;;;;;;9.60;2.55;;;7.20;99.90;;;;;;4973060;28;20657;-60
2024/01/05 06:56:17;;;;;;;10.65;2.50;;;7.20;99.90;;;;;;4973759;28;20208;-62
2024/01/05 06:58:45;;;;;;;9.70;2.92;;;7.20;99.90;;;;;;4972832;28;20303;-61
2024/01/05 07:01:14;;;;;;;9.07;2.97;;;7.10;99.90;;;;;;4973032;28;20708;-64
2024/01/05 07:03:42;;;;;;;10.48;2.67;;;7.10;99.90;;;;;;4973317;28;20232;-64
2024/01/05 07:06:11;;;;;;;4.18;2.90;;;7.10;99.90;;;;;;4973260;28;20213;-64
2024/01/05 07:08:39;;;;;;;12.70;3.33;;;7.20;99.90;;;;;;4973301;28;20205;-64
2024/01/05 07:11:07;;;;;;;9.95;2.88;;;7.10;99.90;;;;;;4972979;28;20232;-64
2024/01/05 07:13:35;;;;;;;12.65;2.70;;;7.10;99.90;;;;;;4973218;28;20670;-63
2024/01/05 07:16:03;;;;;;;7.70;2.70;;;7.10;99.90;;;;;;4972940;28;20251;-63
2024/01/05 07:18:32;;;;;;;10.60;3.00;;;7.10;99.90;;;;;;4972707;28;20758;-64
2024/01/05 07:21:04;;;;;;;10.40;2.38;;;7.10;99.90;;;;;;4972703;28;20235;-63
2024/01/05 07:23:32;;;;;;;10.05;2.65;;;7.10;99.90;;;;;;4971811;28;20734;-64
2024/01/05 07:26:01;;;;;;;12.48;3.20;;;7.10;99.90;;;;;;4972926;28;20348;-64
2024/01/05 07:28:28;;;;;;;12.95;2.92;;;7.00;99.90;;;;;;4972192;28;20236;-64
2024/01/05 07:30:56;;;;;;;7.32;2.53;;;7.00;99.90;;;;;;4972308;28;20252;-63
2024/01/05 07:33:24;;;;;;;8.63;3.00;;;7.00;99.90;;;;;;4972846;28;20228;-64
2024/01/05 07:35:54;;;;;;;6.20;2.60;;;7.00;99.90;;;;;;4972859;28;20200;-63
2024/01/05 07:38:21;;;;;;;9.23;2.90;;;7.00;99.90;;;;;;4965046;28;20630;-64
2024/01/05 07:40:49;;;;;;;10.05;2.90;;;6.90;99.90;;;;;;4972845;28;20300;-64
2024/01/05 07:43:17;;;;;;;11.07;3.38;;;6.90;99.90;;;;;;4973082;28;20319;-64
2024/01/05 07:45:45;;;;;;;9.13;2.67;;;6.90;99.90;;;;;;4972882;28;20208;-63
2024/01/05 07:48:13;;;;;;;12.45;3.13;;;6.90;99.90;;;;;;4972834;28;20240;-64
2024/01/05 07:50:41;;;;;;;11.68;2.92;;;7.00;99.90;;;;;;4972607;28;20300;-63
2024/01/05 07:53:11;;;;;;;7.82;2.38;;;7.00;99.90;;;;;;4972756;28;20251;-64
2024/01/05 07:55:38;;;;;;;5.88;2.60;;;7.00;99.90;;;;;;4972594;28;20216;-63
2024/01/05 07:58:06;;;;;;;5.88;2.08;;;7.00;99.90;;;;;;4972711;28;20240;-64
2024/01/05 08:00:35;;;;;;;11.38;3.22;;;7.10;99.90;;;;;;4972468;28;20311;-64
2024/01/05 08:03:05;;;;;;;8.75;2.85;;;7.10;99.90;;;;;;4972732;28;20208;-64
2024/01/05 08:05:33;;;;;;;10.35;3.25;;;7.10;99.90;;;;;;4972660;28;20208;-64
2024/01/05 08:08:01;;;;;;;8.98;2.90;;;7.20;99.90;;;;;;4972450;28;20679;-63
2024/01/05 08:10:31;;;;;;;9.80;2.72;;;7.20;99.90;;;;;;4972347;28;20678;-64
2024/01/05 08:13:01;;;;;;;13.52;2.90;;;7.20;99.90;;;;;;4972550;28;20208;-64
2024/01/05 08:15:29;;;;;;;7.72;2.55;;;7.20;99.90;;;;;;4972513;28;20232;-64
2024/01/05 08:17:57;;;;;;;8.50;2.58;;;7.30;99.90;;;;;;4972430;28;20213;-64
2024/01/05 08:20:25;;;;;;;10.77;2.80;;;7.30;99.90;;;;;;4972189;28;20228;-64
2024/01/05 08:22:53;;;;;;;12.90;2.78;;;7.30;99.90;;;;;;4972660;28;20244;-64
2024/01/05 08:25:21;;;;;;;11.40;3.03;;;7.30;99.90;;;;;;4969896;28;20328;-63
2024/01/05 08:27:52;;;;;;;16.02;2.97;;;7.40;99.90;;;;;;4970897;28;20230;-63
2024/01/05 08:30:20;;;;;;;10.43;2.83;;;7.40;99.90;;;;;;4970411;28;20295;-63
2024/01/05 08:32:54;;;;;;;9.73;2.25;;;7.50;99.90;;;;;;4972451;28;20350;-63
2024/01/05 08:35:22;;;;;;;4.97;2.22;;;7.50;99.90;;;;;;4972122;28;20208;-63
2024/01/05 08:37:50;;;;;;;6.97;2.42;;;7.50;99.90;;;;;;4971315;28;20300;-63
2024/01/05 08:40:18;;;;;;;8.48;2.28;;;7.40;99.90;;;;;;4971449;28;20261;-63
2024/01/05 08:42:46;;;;;;;8.35;2.75;;;7.40;99.90;;;;;;4972808;28;20287;-62
2024/01/05 08:45:18;;;;;;;7.40;2.53;;;7.40;99.90;;;;;;4975743;28;20225;-63
2024/01/05 08:47:46;;;;;;;7.45;2.63;;;7.40;99.90;;;;;;4975516;28;20216;-63
2024/01/05 08:50:15;;;;;;;6.65;2.42;;;7.40;99.90;;;;;;4974446;28;20212;-63
2024/01/05 08:52:44;;;;;;;12.27;3.13;;;7.40;99.90;;;;;;4975064;28;20205;-63
2024/01/05 08:55:14;;;;;;;5.80;2.78;;;7.40;99.90;;;;;;4974415;28;20254;-63
2024/01/05 08:57:42;;;;;;;16.38;2.80;;;7.40;99.90;;;;;;4974882;28;20213;-63
2024/01/05 09:00:11;;;;;;;5.45;2.60;;;7.40;99.90;;;;;;4974371;28;20235;-63
2024/01/05 09:02:40;;;;;;;9.38;2.67;;;7.50;99.90;;;;;;4975230;28;20205;-62
2024/01/05 09:05:09;;;;;;;6.88;2.60;;;7.50;99.90;;;;;;4974360;28;20225;-62
2024/01/05 09:07:37;;;;;;;12.15;2.47;;;7.60;99.90;;;;;;4974134;28;20231;-62
2024/01/05 09:10:08;;;;;;;9.70;2.92;;;7.60;99.90;;;;;;4974928;28;20267;-63
2024/01/05 09:12:36;;;;;;;9.18;2.97;;;7.70;99.90;;;;;;4975218;28;20213;-63
2024/01/05 09:15:04;;;;;;;9.80;3.47;;;7.70;99.90;;;;;;4974641;28;20235;-62
2024/01/05 09:17:32;;;;;;;6.63;2.60;;;7.70;99.90;;;;;;4974002;28;20223;-62
2024/01/05 09:20:03;;;;;;;9.35;3.08;;;7.80;99.90;;;;;;4973054;28;20205;-63
2024/01/05 09:22:31;;;;;;;5.70;2.35;;;7.80;99.90;;;;;;4974656;28;20215;-62
2024/01/05 09:24:59;;;;;;;12.75;2.92;;;7.80;99.90;;;;;;4974808;28;20228;-61
2024/01/05 09:27:27;;;;;;;8.43;2.47;;;7.90;99.90;;;;;;4974143;28;20228;-61
2024/01/05 09:29:55;;;;;;;7.28;2.90;;;7.90;99.90;;;;;;4974168;28;20304;-62
2024/01/05 09:32:24;;;;;;;9.20;2.85;;;7.90;99.90;;;;;;4974531;28;21754;-61
2024/01/05 09:34:52;;;;;;;8.32;2.40;;;7.90;99.90;;;;;;4974123;28;20719;-62
2024/01/05 09:37:21;;;;;;;10.23;2.45;;;7.90;99.90;;;;;;4974130;28;20209;-61
2024/01/05 09:39:49;;;;;;;8.73;2.45;;;7.90;99.90;;;;;;4974237;28;20259;-62
2024/01/05 09:42:17;;;;;;;7.93;2.33;;;7.90;99.90;;;;;;4974317;28;20228;-62
2024/01/05 09:44:46;;;;;;;9.00;2.80;;;8.00;99.90;;;;;;4974103;28;20235;-62
2024/01/05 09:47:14;;;;;;;9.65;2.25;;;8.00;99.90;;;;;;4974098;28;20205;-62
2024/01/05 09:49:44;;;;;;;11.20;2.38;;;8.10;99.90;;;;;;4974050;28;20286;-62
2024/01/05 09:52:13;;;;;;;6.78;2.88;;;8.20;99.90;;;;;;4974815;28;20209;-63
2024/01/05 09:54:43;;;;;;;6.20;2.53;;;8.30;99.90;;;;;;4972652;28;20283;-63
2024/01/05 09:57:11;;;;;;;6.80;2.08;;;8.30;99.90;;;;;;4974296;28;20216;-62
2024/01/05 09:59:39;;;;;;;6.95;2.28;;;8.40;99.90;;;;;;4972807;28;20211;-62
2024/01/05 10:02:09;;;;;;;9.13;2.58;;;8.40;99.90;;;;;;4972576;28;20690;-62
2024/01/05 10:04:37;;;;;;;7.25;2.50;;;8.40;99.90;;;;;;4973895;28;20232;-64
2024/01/05 10:07:05;;;;;;;12.15;2.78;;;8.50;99.90;;;;;;4970941;28;20209;-62
2024/01/05 10:09:33;;;;;;;6.22;2.58;;;8.50;99.90;;;;;;4973687;28;20219;-62
2024/01/05 10:12:12;;;;;;;7.07;2.30;;;8.50;99.90;;;;;;4970531;28;20291;-62
2024/01/05 10:14:40;;;;;;;8.93;2.60;;;8.60;99.90;;;;;;4967548;28;20224;-63
2024/01/05 10:17:08;;;;;;;7.35;2.22;;;8.60;99.90;;;;;;4974263;28;20208;-63
2024/01/05 10:19:37;;;;;;;5.22;2.20;;;8.60;99.90;;;;;;4970810;28;20312;-62
2024/01/05 10:22:09;;;;;;;5.90;1.77;;;8.60;99.90;;;;;;4972841;28;20236;-62
2024/01/05 10:24:37;;;;;;;8.57;2.80;;;8.60;99.90;;;;;;4981844;23;20264;-60
2024/01/05 10:27:07;;;;;;;5.80;2.55;;;8.60;99.90;;;;;;4973618;28;20216;-60
2024/01/05 10:29:36;;;;;;;8.35;2.45;;;8.60;99.90;;;;;;4975165;28;20271;-61
2024/01/05 10:32:11;;;;;;;10.00;2.63;;;8.70;99.90;;;;;;4974044;28;20208;-59
2024/01/05 10:34:40;;;;;;;10.45;2.78;;;8.70;99.90;;;;;;4971263;28;20728;-60
2024/01/05 10:37:08;;;;;;;7.00;2.47;;;8.70;99.90;;;;;;4973400;28;20215;-59
2024/01/05 10:39:36;;;;;;;7.88;2.55;;;8.70;99.90;;;;;;4972601;28;20208;-58
2024/01/05 10:42:21;;;;;;;5.00;2.50;;;8.70;99.90;;;;;;4973580;28;20232;-60
2024/01/05 10:44:52;;;;;;;7.13;2.30;;;8.80;99.90;;;;;;4973351;28;20259;-61
2024/01/05 10:47:20;;;;;;;10.50;2.55;;;8.80;99.90;;;;;;4973058;28;20305;-59
2024/01/05 10:49:50;;;;;;;5.32;2.88;;;8.80;99.90;;;;;;4972935;28;20248;-60
2024/01/05 10:52:18;;;;;;;9.82;2.58;;;8.90;99.90;;;;;;4973553;28;20276;-60
2024/01/05 10:54:47;;;;;;;4.20;2.28;;;9.00;99.90;;;;;;4972995;28;20781;-59
2024/01/05 10:57:16;;;;;;;10.15;2.20;;;9.00;99.90;;;;;;4973471;28;20346;-61
2024/01/05 10:59:46;;;;;;;7.53;2.40;;;9.10;99.90;;;;;;4972891;28;20620;-60
2024/01/05 11:02:19;;;;;;;6.28;2.17;;;9.20;99.90;;;;;;4972832;28;20259;-60
2024/01/05 11:04:58;;;;;;;9.32;2.55;;;9.20;99.90;;;;;;4972339;28;20231;-60
2024/01/05 11:07:26;;;;;;;13.35;2.55;;;9.20;99.90;;;;;;4972891;28;20750;-60
2024/01/05 11:09:57;;;;;;;7.38;2.30;;;9.20;99.90;;;;;;4972766;28;20212;-60
2024/01/05 11:12:34;;;;;;;8.45;2.00;;;9.30;99.90;;;;;;4973341;28;20300;-61
2024/01/05 11:15:10;;;;;;;6.55;2.13;;;9.30;99.90;;;;;;4972615;28;20701;-61
2024/01/05 11:17:50;;;;;;;4.55;2.00;;;9.30;99.90;;;;;;4972874;28;20218;-61
2024/01/05 11:20:34;;;;;;;4.95;2.13;;;9.40;99.90;;;;;;4972361;28;20700;-60
2024/01/05 11:23:02;;;;;;;5.50;1.60;;;9.40;99.90;;;;;;4973179;28;20287;-60
2024/01/05 11:25:30;;;;;;;3.47;1.63;;;9.40;99.90;;;;;;4972490;28;20311;-59
2024/01/05 11:27:58;;;;;;;8.55;1.63;;;9.50;99.90;;;;;;4972752;28;20204;-61
2024/01/05 11:30:40;;;;;;;7.00;1.90;;;9.50;99.90;;;;;;4972422;28;20255;-60
2024/01/05 11:33:09;;;;;;;5.57;1.77;;;9.50;99.90;;;;;;4972889;28;20576;-59
2024/01/05 11:35:41;;;;;;;5.38;1.80;;;9.50;99.90;;;;;;4972479;28;20227;-59
2024/01/05 11:38:26;;;;;;;9.48;1.98;;;9.50;99.90;;;;;;4972382;28;20230;-61
2024/01/05 11:40:54;;;;;;;5.13;1.30;;;9.60;99.90;;;;;;4971810;28;20320;-61
2024/01/05 11:43:35;;;;;;;5.00;1.40;;;9.60;99.90;;;;;;4972777;28;20288;-61
2024/01/05 11:46:05;;;;;;;2.53;1.38;;;9.60;99.90;;;;;;4972396;28;20346;-59
2024/01/05 11:48:46;;;;;;;2.85;1.40;;;9.70;99.90;;;;;;4971125;28;20236;-61
2024/01/05 11:51:14;;;;;;;7.72;1.70;;;9.80;99.90;;;;;;4972487;28;20272;-61
2024/01/05 11:53:44;;;;;;;5.75;1.70;;;9.90;99.90;;;;;;4972707;28;20234;-62
2024/01/05 11:56:17;;;;;;;6.13;1.63;;;9.90;99.90;;;;;;4972456;28;20220;-60
2024/01/05 11:58:46;;;;;;;6.63;1.92;;;9.90;99.90;;;;;;4971622;28;20205;-59
2024/01/05 12:01:16;;;;;;;3.15;1.67;;;9.90;99.90;;;;;;4972131;28;20662;-61
2024/01/05 12:03:45;;;;;;;6.70;1.55;;;9.80;99.90;;;;;;4972399;28;20233;-60
2024/01/05 12:06:14;;;;;;;5.93;1.75;;;9.80;99.90;;;;;;4972453;28;20729;-60
2024/01/05 12:08:42;;;;;;;2.72;1.30;;;9.80;99.90;;;;;;4971953;28;20211;-59
2024/01/05 12:11:11;;;;;;;5.20;1.27;;;9.80;99.90;;;;;;4972085;28;20208;-61
2024/01/05 12:13:39;;;;;;;3.28;1.02;;;9.70;99.90;;;;;;4972667;28;20240;-60
2024/01/05 12:16:08;;;;;;;9.60;1.20;;;9.70;99.90;;;;;;4973494;28;20216;-59
2024/01/05 12:18:45;;;;;;;6.47;1.80;;;9.70;99.90;;;;;;4967600;28;20206;-60
2024/01/05 12:21:14;;;;;;;2.78;1.10;;;9.80;99.90;;;;;;4976271;28;20215;-60
2024/01/05 12:23:51;;;;;;;2.65;0.95;;;9.80;99.90;;;;;;4976228;28;20243;-60
2024/01/05 12:26:19;;;;;;;3.83;1.30;;;9.80;99.90;;;;;;4976831;28;20862;-60
2024/01/05 12:28:47;;;;;;;3.40;0.88;;;9.80;99.90;;;;;;4975732;28;20204;-59
2024/01/05 12:31:15;;;;;;;5.38;1.85;;;9.90;99.90;;;;;;4976191;28;20271;-60
2024/01/05 12:33:45;;;;;;;2.65;1.05;;;10.00;99.90;;;;;;4977002;28;20221;-59
2024/01/05 12:36:25;;;;;;;3.50;1.27;;;10.00;99.90;;;;;;4976599;28;20209;-59
2024/01/05 12:38:53;;;;;;;4.43;1.20;;;10.00;99.90;;;;;;4975538;28;20209;-61
2024/01/05 12:41:21;;;;;;;4.90;1.00;;;10.00;99.90;;;;;;4975922;28;20267;-61
2024/01/05 12:43:51;;;;;;;2.03;1.13;;;10.10;99.90;;;;;;4975135;28;20315;-60
2024/01/05 12:46:19;;;;;;;3.05;0.77;;;10.10;99.90;;;;;;4975110;28;20260;-61
2024/01/05 12:48:50;;;;;;;3.17;0.70;;;10.10;99.90;;;;;;4974888;28;20300;-61
2024/01/05 12:51:21;;;;;;;2.67;0.70;;;10.20;99.90;;;;;;4975713;28;20212;-61
2024/01/05 12:53:58;;;;;;;5.00;1.00;;;10.30;99.90;;;;;;4975464;28;20224;-61
2024/01/05 12:56:26;;;;;;;3.15;0.88;;;10.30;99.90;;;;;;4975424;28;20756;-61
2024/01/05 12:58:54;;;;;;;3.53;0.80;;;10.40;99.90;;;;;;4974005;28;20308;-61
2024/01/05 13:01:23;;;;;;;2.70;0.70;;;10.40;99.90;;;;;;4975475;28;20651;-60